sensor_id;sensor_type;location;lat;lon;timestamp;P1;durP1;ratioP1;P2;durP2;ratioP2
10088;SDS011;51898;49.864;8.550;2023-04-06T00:01:00;10.60;;;7.10;;
10088;SDS011;51898;49.864;8.550;2023-04-06T00:04:01;8.33;;;7.00;;
10088;SDS011;51898;49.864;8.550;2023-04-06T00:07:03;9.87;;;6.50;;
10088;SDS011;51898;49.864;8.550;2023-04-06T00:10:05;9.00;;;6.30;;
10088;SDS011;51898;49.864;8.550;2023-04-06T00:13:07;8.40;;;6.80;;
10088;SDS011;51898;49.864;8.550;2023-04-06T00:16:09;8.63;;;6.73;;
10088;SDS011;51898;49.864;8.550;2023-04-06T00:19:10;11.33;;;6.27;;
10088;SDS011;51898;49.864;8.550;2023-04-06T00:22:12;13.53;;;7.27;;
10088;SDS011;51898;49.864;8.550;2023-04-06T00:25:14;9.47;;;7.50;;
10088;SDS011;51898;49.864;8.550;2023-04-06T00:28:16;10.60;;;8.27;;
10088;SDS011;51898;49.864;8.550;2023-04-06T00:31:18;10.47;;;6.93;;
10088;SDS011;51898;49.864;8.550;2023-04-06T00:34:19;10.20;;;6.67;;
10088;SDS011;51898;49.864;8.550;2023-04-06T00:37:21;9.70;;;7.27;;
10088;SDS011;51898;49.864;8.550;2023-04-06T00:40:23;7.93;;;6.70;;
10088;SDS011;51898;49.864;8.550;2023-04-06T00:43:25;9.17;;;6.77;;
10088;SDS011;51898;49.864;8.550;2023-04-06T00:46:27;10.13;;;6.90;;
10088;SDS011;51898;49.864;8.550;2023-04-06T00:49:29;10.10;;;7.40;;
10088;SDS011;51898;49.864;8.550;2023-04-06T00:52:31;18.13;;;8.10;;
10088;SDS011;51898;49.864;8.550;2023-04-06T00:55:33;11.70;;;6.67;;
10088;SDS011;51898;49.864;8.550;2023-04-06T00:58:36;10.33;;;7.00;;
10088;SDS011;51898;49.864;8.550;2023-04-06T01:01:39;7.77;;;6.30;;
10088;SDS011;51898;49.864;8.550;2023-04-06T01:04:41;8.67;;;6.87;;
10088;SDS011;51898;49.864;8.550;2023-04-06T01:07:43;8.83;;;6.70;;
10088;SDS011;51898;49.864;8.550;2023-04-06T01:10:44;8.73;;;6.27;;
10088;SDS011;51898;49.864;8.550;2023-04-06T01:13:46;10.73;;;7.10;;
10088;SDS011;51898;49.864;8.550;2023-04-06T01:16:48;7.80;;;6.53;;
10088;SDS011;51898;49.864;8.550;2023-04-06T01:19:49;10.00;;;6.80;;
10088;SDS011;51898;49.864;8.550;2023-04-06T01:22:52;8.47;;;6.83;;
10088;SDS011;51898;49.864;8.550;2023-04-06T01:25:53;8.93;;;6.77;;
10088;SDS011;51898;49.864;8.550;2023-04-06T01:28:55;8.90;;;6.50;;
10088;SDS011;51898;49.864;8.550;2023-04-06T01:31:57;8.20;;;6.57;;
10088;SDS011;51898;49.864;8.550;2023-04-06T01:34:59;7.90;;;6.03;;
10088;SDS011;51898;49.864;8.550;2023-04-06T01:38:01;14.10;;;6.77;;
10088;SDS011;51898;49.864;8.550;2023-04-06T01:41:03;8.97;;;6.90;;
10088;SDS011;51898;49.864;8.550;2023-04-06T01:44:05;12.00;;;6.47;;
10088;SDS011;51898;49.864;8.550;2023-04-06T01:47:07;9.00;;;6.40;;
10088;SDS011;51898;49.864;8.550;2023-04-06T01:50:08;8.30;;;6.13;;
10088;SDS011;51898;49.864;8.550;2023-04-06T01:53:10;10.53;;;6.23;;
10088;SDS011;51898;49.864;8.550;2023-04-06T01:56:12;9.00;;;6.80;;
10088;SDS011;51898;49.864;8.550;2023-04-06T01:59:14;11.77;;;6.07;;
10088;SDS011;51898;49.864;8.550;2023-04-06T02:02:15;10.33;;;6.90;;
10088;SDS011;51898;49.864;8.550;2023-04-06T02:05:17;11.57;;;6.67;;
10088;SDS011;51898;49.864;8.550;2023-04-06T02:08:20;10.67;;;6.83;;
10088;SDS011;51898;49.864;8.550;2023-04-06T02:11:22;10.10;;;6.10;;
10088;SDS011;51898;49.864;8.550;2023-04-06T02:14:24;8.70;;;6.87;;
10088;SDS011;51898;49.864;8.550;2023-04-06T02:17:26;12.33;;;6.83;;
10088;SDS011;51898;49.864;8.550;2023-04-06T02:20:28;9.40;;;6.50;;
10088;SDS011;51898;49.864;8.550;2023-04-06T02:23:30;9.73;;;6.63;;
10088;SDS011;51898;49.864;8.550;2023-04-06T02:26:32;9.63;;;6.37;;
10088;SDS011;51898;49.864;8.550;2023-04-06T02:29:33;7.90;;;6.73;;
10088;SDS011;51898;49.864;8.550;2023-04-06T02:32:35;10.73;;;6.43;;
10088;SDS011;51898;49.864;8.550;2023-04-06T02:35:37;7.90;;;6.10;;
10088;SDS011;51898;49.864;8.550;2023-04-06T02:38:39;13.70;;;7.13;;
10088;SDS011;51898;49.864;8.550;2023-04-06T02:41:40;11.80;;;6.97;;
10088;SDS011;51898;49.864;8.550;2023-04-06T02:44:42;11.53;;;7.37;;
10088;SDS011;51898;49.864;8.550;2023-04-06T02:47:44;12.87;;;7.70;;
10088;SDS011;51898;49.864;8.550;2023-04-06T02:50:46;9.00;;;6.97;;
10088;SDS011;51898;49.864;8.550;2023-04-06T02:53:47;14.83;;;6.77;;
10088;SDS011;51898;49.864;8.550;2023-04-06T02:56:49;8.70;;;6.50;;
10088;SDS011;51898;49.864;8.550;2023-04-06T02:59:51;11.13;;;6.93;;
10088;SDS011;51898;49.864;8.550;2023-04-06T03:02:52;13.73;;;7.80;;
10088;SDS011;51898;49.864;8.550;2023-04-06T03:05:54;8.50;;;6.60;;
10088;SDS011;51898;49.864;8.550;2023-04-06T03:08:57;9.97;;;7.00;;
10088;SDS011;51898;49.864;8.550;2023-04-06T03:11:58;9.20;;;5.90;;
10088;SDS011;51898;49.864;8.550;2023-04-06T03:15:00;10.77;;;6.90;;
10088;SDS011;51898;49.864;8.550;2023-04-06T03:18:02;8.50;;;6.30;;
10088;SDS011;51898;49.864;8.550;2023-04-06T03:21:04;9.73;;;6.40;;
10088;SDS011;51898;49.864;8.550;2023-04-06T03:24:06;10.27;;;7.00;;
10088;SDS011;51898;49.864;8.550;2023-04-06T03:27:08;11.87;;;6.67;;
10088;SDS011;51898;49.864;8.550;2023-04-06T03:30:10;8.13;;;6.30;;
10088;SDS011;51898;49.864;8.550;2023-04-06T03:33:12;10.07;;;6.33;;
10088;SDS011;51898;49.864;8.550;2023-04-06T03:36:13;10.63;;;6.83;;
10088;SDS011;51898;49.864;8.550;2023-04-06T03:39:16;9.67;;;6.50;;
10088;SDS011;51898;49.864;8.550;2023-04-06T03:42:17;10.10;;;7.57;;
10088;SDS011;51898;49.864;8.550;2023-04-06T03:45:23;8.90;;;6.20;;
10088;SDS011;51898;49.864;8.550;2023-04-06T03:48:24;13.17;;;6.83;;
10088;SDS011;51898;49.864;8.550;2023-04-06T03:51:27;8.97;;;6.53;;
10088;SDS011;51898;49.864;8.550;2023-04-06T03:54:28;12.93;;;8.00;;
10088;SDS011;51898;49.864;8.550;2023-04-06T03:57:30;10.53;;;7.60;;
10088;SDS011;51898;49.864;8.550;2023-04-06T04:00:32;9.27;;;7.03;;
10088;SDS011;51898;49.864;8.550;2023-04-06T04:03:34;9.83;;;8.30;;
10088;SDS011;51898;49.864;8.550;2023-04-06T04:06:35;11.73;;;7.83;;
10088;SDS011;51898;49.864;8.550;2023-04-06T04:09:37;10.70;;;6.80;;
10088;SDS011;51898;49.864;8.550;2023-04-06T04:12:39;9.83;;;6.97;;
10088;SDS011;51898;49.864;8.550;2023-04-06T04:15:41;12.30;;;7.30;;
10088;SDS011;51898;49.864;8.550;2023-04-06T04:18:42;10.73;;;6.57;;
10088;SDS011;51898;49.864;8.550;2023-04-06T04:21:45;7.80;;;6.10;;
10088;SDS011;51898;49.864;8.550;2023-04-06T04:24:47;11.23;;;6.43;;
10088;SDS011;51898;49.864;8.550;2023-04-06T04:27:49;10.87;;;6.60;;
10088;SDS011;51898;49.864;8.550;2023-04-06T04:30:51;14.43;;;6.50;;
10088;SDS011;51898;49.864;8.550;2023-04-06T04:33:53;10.10;;;7.17;;
10088;SDS011;51898;49.864;8.550;2023-04-06T04:36:54;10.30;;;7.20;;
10088;SDS011;51898;49.864;8.550;2023-04-06T04:39:56;10.17;;;6.80;;
10088;SDS011;51898;49.864;8.550;2023-04-06T04:42:58;11.30;;;6.93;;
10088;SDS011;51898;49.864;8.550;2023-04-06T04:45:59;8.67;;;6.53;;
10088;SDS011;51898;49.864;8.550;2023-04-06T04:49:01;8.43;;;6.10;;
10088;SDS011;51898;49.864;8.550;2023-04-06T04:52:03;9.70;;;6.27;;
10088;SDS011;51898;49.864;8.550;2023-04-06T04:55:05;10.27;;;7.27;;
10088;SDS011;51898;49.864;8.550;2023-04-06T04:58:07;9.23;;;6.60;;
10088;SDS011;51898;49.864;8.550;2023-04-06T05:01:10;10.00;;;6.60;;
10088;SDS011;51898;49.864;8.550;2023-04-06T05:04:11;8.53;;;6.30;;
10088;SDS011;51898;49.864;8.550;2023-04-06T05:07:13;8.60;;;6.80;;
10088;SDS011;51898;49.864;8.550;2023-04-06T05:10:16;8.30;;;6.00;;
10088;SDS011;51898;49.864;8.550;2023-04-06T05:13:18;9.67;;;6.80;;
10088;SDS011;51898;49.864;8.550;2023-04-06T05:16:20;16.60;;;6.70;;
10088;SDS011;51898;49.864;8.550;2023-04-06T05:19:21;12.03;;;6.60;;
10088;SDS011;51898;49.864;8.550;2023-04-06T05:22:23;8.33;;;6.83;;
10088;SDS011;51898;49.864;8.550;2023-04-06T05:25:25;13.73;;;6.87;;
10088;SDS011;51898;49.864;8.550;2023-04-06T05:28:26;12.87;;;8.17;;
10088;SDS011;51898;49.864;8.550;2023-04-06T05:31:28;14.47;;;7.47;;
10088;SDS011;51898;49.864;8.550;2023-04-06T05:34:30;11.00;;;6.93;;
10088;SDS011;51898;49.864;8.550;2023-04-06T05:37:32;13.37;;;7.90;;
10088;SDS011;51898;49.864;8.550;2023-04-06T05:40:33;20.53;;;9.60;;
10088;SDS011;51898;49.864;8.550;2023-04-06T05:43:36;12.17;;;7.63;;
10088;SDS011;51898;49.864;8.550;2023-04-06T05:46:38;16.53;;;7.93;;
10088;SDS011;51898;49.864;8.550;2023-04-06T05:49:41;13.43;;;7.33;;
10088;SDS011;51898;49.864;8.550;2023-04-06T05:52:43;15.10;;;8.40;;
10088;SDS011;51898;49.864;8.550;2023-04-06T05:55:47;14.50;;;7.80;;
10088;SDS011;51898;49.864;8.550;2023-04-06T05:58:49;14.80;;;7.97;;
10088;SDS011;51898;49.864;8.550;2023-04-06T06:01:50;13.63;;;7.60;;
10088;SDS011;51898;49.864;8.550;2023-04-06T06:04:52;10.37;;;8.17;;
10088;SDS011;51898;49.864;8.550;2023-04-06T06:07:54;14.77;;;8.30;;
10088;SDS011;51898;49.864;8.550;2023-04-06T06:10:56;13.63;;;9.17;;
10088;SDS011;51898;49.864;8.550;2023-04-06T06:13:57;17.10;;;9.30;;
10088;SDS011;51898;49.864;8.550;2023-04-06T06:16:59;14.73;;;9.20;;
10088;SDS011;51898;49.864;8.550;2023-04-06T06:20:01;11.67;;;8.30;;
10088;SDS011;51898;49.864;8.550;2023-04-06T06:23:03;15.90;;;9.27;;
10088;SDS011;51898;49.864;8.550;2023-04-06T06:26:04;15.43;;;9.70;;
10088;SDS011;51898;49.864;8.550;2023-04-06T06:29:06;15.73;;;10.23;;
10088;SDS011;51898;49.864;8.550;2023-04-06T06:32:08;16.50;;;9.93;;
10088;SDS011;51898;49.864;8.550;2023-04-06T06:35:10;13.70;;;10.40;;
10088;SDS011;51898;49.864;8.550;2023-04-06T06:38:12;17.00;;;10.07;;
10088;SDS011;51898;49.864;8.550;2023-04-06T06:41:14;14.30;;;10.37;;
10088;SDS011;51898;49.864;8.550;2023-04-06T06:44:16;15.77;;;10.70;;
10088;SDS011;51898;49.864;8.550;2023-04-06T06:47:18;14.10;;;10.57;;
10088;SDS011;51898;49.864;8.550;2023-04-06T06:50:19;14.17;;;9.73;;
10088;SDS011;51898;49.864;8.550;2023-04-06T06:53:21;15.17;;;10.57;;
10088;SDS011;51898;49.864;8.550;2023-04-06T06:56:23;17.43;;;11.43;;
10088;SDS011;51898;49.864;8.550;2023-04-06T06:59:25;15.30;;;10.43;;
10088;SDS011;51898;49.864;8.550;2023-04-06T07:02:26;15.57;;;11.27;;
10088;SDS011;51898;49.864;8.550;2023-04-06T07:05:28;17.30;;;10.23;;
10088;SDS011;51898;49.864;8.550;2023-04-06T07:08:30;14.87;;;10.70;;
10088;SDS011;51898;49.864;8.550;2023-04-06T07:11:31;17.43;;;11.20;;
10088;SDS011;51898;49.864;8.550;2023-04-06T07:14:33;15.07;;;11.43;;
10088;SDS011;51898;49.864;8.550;2023-04-06T07:17:35;14.40;;;10.33;;
10088;SDS011;51898;49.864;8.550;2023-04-06T07:20:36;15.63;;;10.90;;
10088;SDS011;51898;49.864;8.550;2023-04-06T07:23:38;13.73;;;10.57;;
10088;SDS011;51898;49.864;8.550;2023-04-06T07:26:40;13.73;;;9.50;;
10088;SDS011;51898;49.864;8.550;2023-04-06T07:29:41;16.60;;;11.63;;
10088;SDS011;51898;49.864;8.550;2023-04-06T07:32:43;14.83;;;10.83;;
10088;SDS011;51898;49.864;8.550;2023-04-06T07:35:46;16.20;;;10.60;;
10088;SDS011;51898;49.864;8.550;2023-04-06T07:38:48;18.30;;;11.63;;
10088;SDS011;51898;49.864;8.550;2023-04-06T07:41:50;15.77;;;11.90;;
10088;SDS011;51898;49.864;8.550;2023-04-06T07:44:51;16.80;;;10.47;;
10088;SDS011;51898;49.864;8.550;2023-04-06T07:47:53;15.00;;;10.70;;
10088;SDS011;51898;49.864;8.550;2023-04-06T07:51:02;15.03;;;11.30;;
10088;SDS011;51898;49.864;8.550;2023-04-06T07:54:04;15.43;;;11.00;;
10088;SDS011;51898;49.864;8.550;2023-04-06T07:57:06;14.50;;;11.00;;
10088;SDS011;51898;49.864;8.550;2023-04-06T08:00:08;15.80;;;11.37;;
10088;SDS011;51898;49.864;8.550;2023-04-06T08:03:10;15.60;;;10.90;;
10088;SDS011;51898;49.864;8.550;2023-04-06T08:06:12;16.73;;;11.20;;
10088;SDS011;51898;49.864;8.550;2023-04-06T08:09:14;14.30;;;10.90;;
10088;SDS011;51898;49.864;8.550;2023-04-06T08:12:15;13.03;;;10.50;;
10088;SDS011;51898;49.864;8.550;2023-04-06T08:15:17;13.47;;;10.63;;
10088;SDS011;51898;49.864;8.550;2023-04-06T08:18:19;15.60;;;11.90;;
10088;SDS011;51898;49.864;8.550;2023-04-06T08:21:21;13.23;;;10.60;;
10088;SDS011;51898;49.864;8.550;2023-04-06T08:24:23;15.53;;;11.20;;
10088;SDS011;51898;49.864;8.550;2023-04-06T08:27:24;15.03;;;10.53;;
10088;SDS011;51898;49.864;8.550;2023-04-06T08:30:26;13.37;;;11.37;;
10088;SDS011;51898;49.864;8.550;2023-04-06T08:33:28;15.30;;;11.50;;
10088;SDS011;51898;49.864;8.550;2023-04-06T08:36:29;14.40;;;11.67;;
10088;SDS011;51898;49.864;8.550;2023-04-06T08:39:32;14.87;;;11.53;;
10088;SDS011;51898;49.864;8.550;2023-04-06T08:42:37;13.53;;;10.90;;
10088;SDS011;51898;49.864;8.550;2023-04-06T08:45:42;15.00;;;10.70;;
10088;SDS011;51898;49.864;8.550;2023-04-06T08:48:44;15.27;;;11.63;;
10088;SDS011;51898;49.864;8.550;2023-04-06T08:51:49;12.83;;;10.83;;
10088;SDS011;51898;49.864;8.550;2023-04-06T08:54:52;14.77;;;11.60;;
10088;SDS011;51898;49.864;8.550;2023-04-06T08:57:53;12.40;;;10.60;;
10088;SDS011;51898;49.864;8.550;2023-04-06T09:00:56;16.40;;;11.13;;
10088;SDS011;51898;49.864;8.550;2023-04-06T09:03:59;13.37;;;11.07;;
10088;SDS011;51898;49.864;8.550;2023-04-06T09:07:02;15.60;;;12.37;;
10088;SDS011;51898;49.864;8.550;2023-04-06T09:10:04;13.60;;;11.93;;
10088;SDS011;51898;49.864;8.550;2023-04-06T09:13:07;15.43;;;11.20;;
10088;SDS011;51898;49.864;8.550;2023-04-06T09:16:09;17.57;;;11.50;;
10088;SDS011;51898;49.864;8.550;2023-04-06T09:19:12;15.40;;;10.57;;
10088;SDS011;51898;49.864;8.550;2023-04-06T09:22:14;16.33;;;11.57;;
10088;SDS011;51898;49.864;8.550;2023-04-06T09:25:20;15.17;;;11.60;;
10088;SDS011;51898;49.864;8.550;2023-04-06T09:28:23;11.73;;;10.53;;
10088;SDS011;51898;49.864;8.550;2023-04-06T09:31:29;17.43;;;11.20;;
10088;SDS011;51898;49.864;8.550;2023-04-06T09:34:34;15.93;;;10.60;;
10088;SDS011;51898;49.864;8.550;2023-04-06T09:37:36;12.80;;;10.93;;
10088;SDS011;51898;49.864;8.550;2023-04-06T09:40:46;14.10;;;11.80;;
10088;SDS011;51898;49.864;8.550;2023-04-06T09:44:08;21.73;;;11.30;;
10088;SDS011;51898;49.864;8.550;2023-04-06T09:47:11;21.37;;;11.47;;
10088;SDS011;51898;49.864;8.550;2023-04-06T09:50:13;19.03;;;11.33;;
10088;SDS011;51898;49.864;8.550;2023-04-06T09:53:17;14.67;;;10.90;;
10088;SDS011;51898;49.864;8.550;2023-04-06T09:56:23;16.60;;;10.97;;
10088;SDS011;51898;49.864;8.550;2023-04-06T10:02:58;13.40;;;9.87;;
10088;SDS011;51898;49.864;8.550;2023-04-06T10:06:19;15.60;;;10.37;;
10088;SDS011;51898;49.864;8.550;2023-04-06T10:09:24;16.97;;;10.93;;
10088;SDS011;51898;49.864;8.550;2023-04-06T10:12:29;14.23;;;9.90;;
10088;SDS011;51898;49.864;8.550;2023-04-06T10:15:34;16.07;;;10.30;;
10088;SDS011;51898;49.864;8.550;2023-04-06T10:18:35;18.50;;;10.03;;
10088;SDS011;51898;49.864;8.550;2023-04-06T10:21:40;14.07;;;9.73;;
10088;SDS011;51898;49.864;8.550;2023-04-06T10:24:46;18.80;;;11.13;;
10088;SDS011;51898;49.864;8.550;2023-04-06T10:27:48;12.07;;;9.27;;
10088;SDS011;51898;49.864;8.550;2023-04-06T10:31:05;16.10;;;10.27;;
10088;SDS011;51898;49.864;8.550;2023-04-06T10:34:07;16.73;;;10.10;;
10088;SDS011;51898;49.864;8.550;2023-04-06T10:37:10;12.77;;;9.60;;
10088;SDS011;51898;49.864;8.550;2023-04-06T10:40:21;13.97;;;9.43;;
10088;SDS011;51898;49.864;8.550;2023-04-06T10:43:24;13.80;;;10.37;;
10088;SDS011;51898;49.864;8.550;2023-04-06T10:46:27;11.97;;;9.60;;
10088;SDS011;51898;49.864;8.550;2023-04-06T10:49:35;16.70;;;10.23;;
10088;SDS011;51898;49.864;8.550;2023-04-06T10:52:36;14.10;;;11.50;;
10088;SDS011;51898;49.864;8.550;2023-04-06T10:55:39;13.73;;;10.93;;
10088;SDS011;51898;49.864;8.550;2023-04-06T10:58:45;13.63;;;9.07;;
10088;SDS011;51898;49.864;8.550;2023-04-06T11:01:48;15.80;;;10.50;;
10088;SDS011;51898;49.864;8.550;2023-04-06T11:04:56;16.73;;;9.20;;
10088;SDS011;51898;49.864;8.550;2023-04-06T11:07:58;14.03;;;10.10;;
10088;SDS011;51898;49.864;8.550;2023-04-06T11:11:10;15.30;;;10.57;;
10088;SDS011;51898;49.864;8.550;2023-04-06T11:14:19;18.93;;;10.77;;
10088;SDS011;51898;49.864;8.550;2023-04-06T11:17:27;13.27;;;10.93;;
10088;SDS011;51898;49.864;8.550;2023-04-06T11:20:29;16.38;;;11.63;;
10088;SDS011;51898;49.864;8.550;2023-04-06T11:23:31;16.53;;;10.50;;
10088;SDS011;51898;49.864;8.550;2023-04-06T11:26:36;15.30;;;11.10;;
10088;SDS011;51898;49.864;8.550;2023-04-06T11:29:38;17.20;;;10.93;;
10088;SDS011;51898;49.864;8.550;2023-04-06T11:32:42;10.50;;;9.27;;
10088;SDS011;51898;49.864;8.550;2023-04-06T11:35:45;17.33;;;10.60;;
10088;SDS011;51898;49.864;8.550;2023-04-06T11:38:47;15.50;;;11.33;;
10088;SDS011;51898;49.864;8.550;2023-04-06T11:41:50;14.50;;;10.30;;
10088;SDS011;51898;49.864;8.550;2023-04-06T11:44:53;14.30;;;10.13;;
10088;SDS011;51898;49.864;8.550;2023-04-06T11:47:57;14.93;;;9.70;;
10088;SDS011;51898;49.864;8.550;2023-04-06T11:51:01;14.53;;;9.73;;
10088;SDS011;51898;49.864;8.550;2023-04-06T11:54:02;15.43;;;10.83;;
10088;SDS011;51898;49.864;8.550;2023-04-06T11:57:04;16.03;;;10.60;;
10088;SDS011;51898;49.864;8.550;2023-04-06T12:00:07;15.90;;;10.03;;
10088;SDS011;51898;49.864;8.550;2023-04-06T12:03:11;13.80;;;10.37;;
10088;SDS011;51898;49.864;8.550;2023-04-06T12:06:13;12.23;;;9.70;;
10088;SDS011;51898;49.864;8.550;2023-04-06T12:09:18;15.10;;;10.03;;
10088;SDS011;51898;49.864;8.550;2023-04-06T12:12:20;12.40;;;9.57;;
10088;SDS011;51898;49.864;8.550;2023-04-06T12:15:22;13.07;;;9.63;;
10088;SDS011;51898;49.864;8.550;2023-04-06T12:18:24;14.77;;;10.02;;
10088;SDS011;51898;49.864;8.550;2023-04-06T12:21:26;13.00;;;9.63;;
10088;SDS011;51898;49.864;8.550;2023-04-06T12:24:29;13.40;;;10.23;;
10088;SDS011;51898;49.864;8.550;2023-04-06T12:27:31;14.47;;;9.20;;
10088;SDS011;51898;49.864;8.550;2023-04-06T12:30:32;11.47;;;8.83;;
10088;SDS011;51898;49.864;8.550;2023-04-06T12:33:36;9.83;;;8.80;;
10088;SDS011;51898;49.864;8.550;2023-04-06T12:36:37;14.13;;;10.03;;
10088;SDS011;51898;49.864;8.550;2023-04-06T12:39:40;11.70;;;9.67;;
10088;SDS011;51898;49.864;8.550;2023-04-06T12:42:41;10.70;;;8.13;;
10088;SDS011;51898;49.864;8.550;2023-04-06T12:45:43;11.47;;;9.23;;
10088;SDS011;51898;49.864;8.550;2023-04-06T12:48:45;11.50;;;9.63;;
10088;SDS011;51898;49.864;8.550;2023-04-06T12:51:48;10.30;;;9.20;;
10088;SDS011;51898;49.864;8.550;2023-04-06T12:54:50;11.23;;;8.80;;
10088;SDS011;51898;49.864;8.550;2023-04-06T12:57:52;10.80;;;9.00;;
10088;SDS011;51898;49.864;8.550;2023-04-06T13:00:54;10.60;;;8.73;;
10088;SDS011;51898;49.864;8.550;2023-04-06T13:03:57;10.47;;;9.03;;
10088;SDS011;51898;49.864;8.550;2023-04-06T13:07:00;12.30;;;8.57;;
10088;SDS011;51898;49.864;8.550;2023-04-06T13:10:01;11.03;;;9.23;;
10088;SDS011;51898;49.864;8.550;2023-04-06T13:13:03;11.47;;;9.20;;
10088;SDS011;51898;49.864;8.550;2023-04-06T13:16:08;11.23;;;8.87;;
10088;SDS011;51898;49.864;8.550;2023-04-06T13:19:10;9.80;;;8.80;;
10088;SDS011;51898;49.864;8.550;2023-04-06T13:22:12;10.70;;;8.57;;
10088;SDS011;51898;49.864;8.550;2023-04-06T13:25:14;12.37;;;8.73;;
10088;SDS011;51898;49.864;8.550;2023-04-06T13:28:15;9.80;;;8.80;;
10088;SDS011;51898;49.864;8.550;2023-04-06T13:31:17;12.73;;;9.03;;
10088;SDS011;51898;49.864;8.550;2023-04-06T13:34:19;10.77;;;9.67;;
10088;SDS011;51898;49.864;8.550;2023-04-06T13:37:21;12.93;;;9.80;;
10088;SDS011;51898;49.864;8.550;2023-04-06T13:40:22;12.73;;;9.30;;
10088;SDS011;51898;49.864;8.550;2023-04-06T13:43:24;10.40;;;9.17;;
10088;SDS011;51898;49.864;8.550;2023-04-06T13:46:28;11.10;;;9.27;;
10088;SDS011;51898;49.864;8.550;2023-04-06T13:49:30;11.23;;;9.50;;
10088;SDS011;51898;49.864;8.550;2023-04-06T13:52:31;11.90;;;9.20;;
10088;SDS011;51898;49.864;8.550;2023-04-06T13:55:33;11.40;;;9.67;;
10088;SDS011;51898;49.864;8.550;2023-04-06T13:58:35;10.57;;;9.07;;
10088;SDS011;51898;49.864;8.550;2023-04-06T14:01:37;12.97;;;9.27;;
10088;SDS011;51898;49.864;8.550;2023-04-06T14:04:39;11.43;;;10.33;;
10088;SDS011;51898;49.864;8.550;2023-04-06T14:07:40;11.80;;;8.60;;
10088;SDS011;51898;49.864;8.550;2023-04-06T14:10:42;12.13;;;9.10;;
10088;SDS011;51898;49.864;8.550;2023-04-06T14:13:44;11.50;;;9.60;;
10088;SDS011;51898;49.864;8.550;2023-04-06T14:16:46;13.77;;;10.53;;
10088;SDS011;51898;49.864;8.550;2023-04-06T14:19:49;13.97;;;10.03;;
10088;SDS011;51898;49.864;8.550;2023-04-06T14:22:50;11.10;;;9.43;;
10088;SDS011;51898;49.864;8.550;2023-04-06T14:26:03;13.20;;;11.20;;
10088;SDS011;51898;49.864;8.550;2023-04-06T14:29:06;12.70;;;9.50;;
10088;SDS011;51898;49.864;8.550;2023-04-06T14:32:08;12.20;;;10.50;;
10088;SDS011;51898;49.864;8.550;2023-04-06T14:35:10;12.90;;;10.30;;
10088;SDS011;51898;49.864;8.550;2023-04-06T14:38:12;13.20;;;10.80;;
10088;SDS011;51898;49.864;8.550;2023-04-06T14:41:17;11.50;;;9.90;;
10088;SDS011;51898;49.864;8.550;2023-04-06T14:44:20;12.20;;;10.87;;
10088;SDS011;51898;49.864;8.550;2023-04-06T14:47:22;13.90;;;10.77;;
10088;SDS011;51898;49.864;8.550;2023-04-06T14:50:24;14.70;;;11.23;;
10088;SDS011;51898;49.864;8.550;2023-04-06T14:53:26;9.70;;;8.70;;
10088;SDS011;51898;49.864;8.550;2023-04-06T14:56:28;11.77;;;9.77;;
10088;SDS011;51898;49.864;8.550;2023-04-06T14:59:32;11.63;;;8.60;;
10088;SDS011;51898;49.864;8.550;2023-04-06T15:02:39;11.13;;;7.40;;
10088;SDS011;51898;49.864;8.550;2023-04-06T15:05:41;8.13;;;7.27;;
10088;SDS011;51898;49.864;8.550;2023-04-06T15:08:43;7.43;;;6.73;;
10088;SDS011;51898;49.864;8.550;2023-04-06T15:11:45;10.53;;;9.00;;
10088;SDS011;51898;49.864;8.550;2023-04-06T15:14:47;10.50;;;8.27;;
10088;SDS011;51898;49.864;8.550;2023-04-06T15:17:48;9.33;;;8.00;;
10088;SDS011;51898;49.864;8.550;2023-04-06T15:20:50;8.90;;;7.70;;
10088;SDS011;51898;49.864;8.550;2023-04-06T15:23:53;8.53;;;7.63;;
10088;SDS011;51898;49.864;8.550;2023-04-06T15:26:55;9.83;;;8.87;;
10088;SDS011;51898;49.864;8.550;2023-04-06T15:29:57;12.63;;;8.03;;
10088;SDS011;51898;49.864;8.550;2023-04-06T15:32:59;7.70;;;6.90;;
10088;SDS011;51898;49.864;8.550;2023-04-06T15:36:03;9.47;;;7.37;;
10088;SDS011;51898;49.864;8.550;2023-04-06T15:39:11;7.30;;;6.27;;
10088;SDS011;51898;49.864;8.550;2023-04-06T15:42:14;8.53;;;6.70;;
10088;SDS011;51898;49.864;8.550;2023-04-06T15:45:16;7.30;;;6.47;;
10088;SDS011;51898;49.864;8.550;2023-04-06T15:48:18;7.63;;;6.87;;
10088;SDS011;51898;49.864;8.550;2023-04-06T15:51:19;9.20;;;7.53;;
10088;SDS011;51898;49.864;8.550;2023-04-06T15:54:21;8.27;;;7.50;;
10088;SDS011;51898;49.864;8.550;2023-04-06T15:57:23;8.87;;;7.83;;
10088;SDS011;51898;49.864;8.550;2023-04-06T16:00:24;8.90;;;8.00;;
10088;SDS011;51898;49.864;8.550;2023-04-06T16:03:28;10.87;;;8.30;;
10088;SDS011;51898;49.864;8.550;2023-04-06T16:06:30;9.73;;;7.93;;
10088;SDS011;51898;49.864;8.550;2023-04-06T16:09:32;10.70;;;7.50;;
10088;SDS011;51898;49.864;8.550;2023-04-06T16:12:34;7.20;;;6.50;;
10088;SDS011;51898;49.864;8.550;2023-04-06T16:15:36;8.70;;;6.53;;
10088;SDS011;51898;49.864;8.550;2023-04-06T16:18:38;6.70;;;5.77;;
10088;SDS011;51898;49.864;8.550;2023-04-06T16:21:39;9.17;;;8.07;;
10088;SDS011;51898;49.864;8.550;2023-04-06T16:24:41;7.27;;;6.00;;
10088;SDS011;51898;49.864;8.550;2023-04-06T16:27:42;9.30;;;7.50;;
10088;SDS011;51898;49.864;8.550;2023-04-06T16:30:44;7.07;;;6.37;;
10088;SDS011;51898;49.864;8.550;2023-04-06T16:33:47;11.20;;;6.87;;
10088;SDS011;51898;49.864;8.550;2023-04-06T16:36:49;8.33;;;6.80;;
10088;SDS011;51898;49.864;8.550;2023-04-06T16:39:51;7.10;;;6.40;;
10088;SDS011;51898;49.864;8.550;2023-04-06T16:42:53;6.77;;;5.70;;
10088;SDS011;51898;49.864;8.550;2023-04-06T16:45:56;5.97;;;5.40;;
10088;SDS011;51898;49.864;8.550;2023-04-06T16:48:58;7.20;;;6.50;;
10088;SDS011;51898;49.864;8.550;2023-04-06T16:52:00;6.43;;;5.73;;
10088;SDS011;51898;49.864;8.550;2023-04-06T16:55:05;7.07;;;5.53;;
10088;SDS011;51898;49.864;8.550;2023-04-06T16:58:07;5.00;;;4.50;;
10088;SDS011;51898;49.864;8.550;2023-04-06T17:01:16;6.50;;;5.90;;
10088;SDS011;51898;49.864;8.550;2023-04-06T17:04:18;8.27;;;5.60;;
10088;SDS011;51898;49.864;8.550;2023-04-06T17:07:20;7.03;;;6.17;;
10088;SDS011;51898;49.864;8.550;2023-04-06T17:10:25;7.80;;;5.83;;
10088;SDS011;51898;49.864;8.550;2023-04-06T17:13:34;6.30;;;5.70;;
10088;SDS011;51898;49.864;8.550;2023-04-06T17:16:36;5.50;;;4.90;;
10088;SDS011;51898;49.864;8.550;2023-04-06T17:19:38;6.60;;;4.57;;
10088;SDS011;51898;49.864;8.550;2023-04-06T17:22:39;6.00;;;5.37;;
10088;SDS011;51898;49.864;8.550;2023-04-06T17:25:42;6.10;;;5.50;;
10088;SDS011;51898;49.864;8.550;2023-04-06T17:28:43;6.77;;;5.97;;
10088;SDS011;51898;49.864;8.550;2023-04-06T17:31:45;6.57;;;5.40;;
10088;SDS011;51898;49.864;8.550;2023-04-06T17:34:47;6.70;;;6.03;;
10088;SDS011;51898;49.864;8.550;2023-04-06T17:37:49;9.00;;;7.00;;
10088;SDS011;51898;49.864;8.550;2023-04-06T17:40:50;6.80;;;6.20;;
10088;SDS011;51898;49.864;8.550;2023-04-06T17:43:52;12.07;;;7.07;;
10088;SDS011;51898;49.864;8.550;2023-04-06T17:46:54;8.47;;;6.40;;
10088;SDS011;51898;49.864;8.550;2023-04-06T17:49:57;6.17;;;5.63;;
10088;SDS011;51898;49.864;8.550;2023-04-06T17:52:59;6.30;;;5.60;;
10088;SDS011;51898;49.864;8.550;2023-04-06T17:56:01;10.00;;;7.70;;
10088;SDS011;51898;49.864;8.550;2023-04-06T17:59:03;10.90;;;8.23;;
10088;SDS011;51898;49.864;8.550;2023-04-06T18:02:08;7.70;;;6.60;;
10088;SDS011;51898;49.864;8.550;2023-04-06T18:05:10;7.70;;;6.90;;